Time;durP1;ratioP1;P1;durP2;ratioP2;P2;SDS_P1;SDS_P2;PMS_P1;PMS_P2;Temp;Humidity;BMP_temperature;BMP_pressure;BME280_temperature;BME280_humidity;BME280_pressure;Samples;Min_cycle;Max_cycle;Signal;HPM_P1;HPM_P2
2023/03/27 00:01:11;;;;;;;14.00;2.63;;;;;;;7.26;62.37;101213.78;5074425;28;20138;-68
2023/03/27 00:03:39;;;;;;;17.35;3.05;;;;;;;7.49;61.63;101212.34;5076272;28;20037;-69
2023/03/27 00:06:10;;;;;;;12.98;2.10;;;;;;;7.35;60.99;101217.59;5058124;28;20045;-69
2023/03/27 00:08:38;;;;;;;9.95;2.03;;;;;;;7.14;60.70;101231.63;5074386;28;20075;-69
2023/03/27 00:11:06;;;;;;;17.48;2.22;;;;;;;7.06;61.66;101224.78;5064906;28;20059;-69
2023/03/27 00:13:37;;;;;;;14.93;2.10;;;;;;;7.11;61.40;101246.72;5075262;28;20052;-69
2023/03/27 00:16:21;;;;;;;11.48;2.33;;;;;;;7.08;61.37;101250.00;5059657;28;20044;-68
2023/03/27 00:18:48;;;;;;;17.95;3.00;;;;;;;7.00;61.60;101264.25;5058540;28;20060;-70
2023/03/27 00:21:16;;;;;;;14.60;2.22;;;;;;;7.08;61.55;101268.38;5074834;28;20048;-68
2023/03/27 00:23:43;;;;;;;11.73;2.20;;;;;;;7.03;61.49;101288.34;5076873;28;20476;-69
2023/03/27 00:26:11;;;;;;;15.43;2.60;;;;;;;7.00;61.80;101288.09;5074124;28;20040;-69
2023/03/27 00:28:38;;;;;;;11.15;1.92;;;;;;;7.17;61.03;101294.06;5075987;28;20383;-69
2023/03/27 00:31:10;;;;;;;10.77;1.95;;;;;;;6.70;62.53;101294.41;5067979;28;20040;-69
2023/03/27 00:33:38;;;;;;;15.55;1.60;;;;;;;6.85;62.24;101310.84;5076343;28;20055;-68
2023/03/27 00:36:06;;;;;;;13.65;2.10;;;;;;;6.76;62.39;101307.81;5073702;28;20051;-69
2023/03/27 00:38:33;;;;;;;18.95;2.92;;;;;;;6.62;62.86;101323.16;5075478;28;20057;-68
2023/03/27 00:41:01;;;;;;;16.88;2.65;;;;;;;6.83;62.98;101332.19;5047738;28;20075;-68
2023/03/27 00:43:35;;;;;;;17.40;2.58;;;;;;;6.78;62.60;101335.72;5058250;28;20074;-69
2023/03/27 00:46:14;;;;;;;9.05;2.20;;;;;;;6.97;62.68;101333.28;5075532;28;20059;-69
2023/03/27 00:48:46;;;;;;;13.38;2.30;;;;;;;6.77;63.17;101330.53;5058144;28;20055;-69
2023/03/27 00:51:14;;;;;;;12.23;1.70;;;;;;;7.08;61.85;101337.66;5073051;28;20040;-70
2023/03/27 00:53:43;;;;;;;15.20;2.65;;;;;;;6.99;61.99;101335.75;5053555;28;20045;-68
2023/03/27 00:56:11;;;;;;;10.10;1.88;;;;;;;6.91;61.99;101334.38;5073906;28;20049;-69
2023/03/27 00:58:45;;;;;;;13.70;2.00;;;;;;;6.85;62.33;101338.22;5076707;28;20052;-68
2023/03/27 01:01:14;;;;;;;15.88;2.50;;;;;;;6.90;62.26;101345.59;5072637;28;20049;-69
2023/03/27 01:03:45;;;;;;;18.60;2.80;;;;;;;6.65;62.95;101344.50;5056834;28;20055;-68
2023/03/27 01:06:15;;;;;;;17.65;2.28;;;;;;;6.70;62.45;101349.16;5073138;28;20044;-69
2023/03/27 01:08:44;;;;;;;12.60;2.00;;;;;;;6.63;63.06;101352.16;5075274;28;20037;-69
2023/03/27 01:11:27;;;;;;;12.32;1.95;;;;;;;6.53;63.44;101367.75;5074692;28;20041;-69
2023/03/27 01:14:36;;;;;;;13.98;2.13;;;;;;;6.63;63.81;101363.09;5057477;28;20060;-69
2023/03/27 01:17:24;;;;;;;12.27;1.92;;;;;;;6.85;63.13;101384.78;5036518;28;20407;-69
2023/03/27 01:20:12;;;;;;;20.00;3.38;;;;;;;6.82;63.34;101374.34;5057382;28;20403;-69
2023/03/27 01:22:46;;;;;;;11.55;2.10;;;;;;;6.48;64.57;101387.72;5077919;28;20055;-69
2023/03/27 01:25:14;;;;;;;20.23;2.05;;;;;;;6.58;63.99;101387.75;5079060;28;20049;-69
2023/03/27 01:27:51;;;;;;;13.38;2.53;;;;;;;6.51;64.42;101392.66;5077842;28;20407;-69
2023/03/27 01:30:39;;;;;;;10.48;2.20;;;;;;;6.70;64.51;101391.03;5078615;28;20415;-70
2023/03/27 01:33:39;;;;;;;15.68;2.80;;;;;;;6.65;64.73;101396.50;5045504;28;20057;-69
2023/03/27 01:36:44;;;;;;;18.35;2.38;;;;;;;6.52;66.23;101393.47;5045760;28;20056;-70
2023/03/27 01:39:30;;;;;;;14.57;2.30;;;;;;;6.57;66.27;101396.22;5080063;28;20044;-69
2023/03/27 01:42:17;;;;;;;16.05;2.53;;;;;;;6.58;66.86;101404.16;5060194;28;20146;-70
2023/03/27 01:45:04;;;;;;;12.60;2.47;;;;;;;6.58;67.20;101400.59;5062335;28;20075;-70
2023/03/27 01:47:59;;;;;;;14.35;2.53;;;;;;;6.50;67.03;101407.41;5061112;28;20369;-70
2023/03/27 01:50:41;;;;;;;13.02;2.50;;;;;;;6.42;67.45;101412.56;5033996;28;20061;-69
2023/03/27 01:53:19;;;;;;;17.10;2.35;;;;;;;6.55;67.20;101407.44;5078544;28;20053;-68
2023/03/27 01:56:09;;;;;;;17.00;2.70;;;;;;;6.67;67.56;101423.59;5076064;28;20384;-69
2023/03/27 01:58:45;;;;;;;12.43;2.45;;;;;;;6.38;68.25;101422.44;5079774;28;20048;-68
2023/03/27 02:01:23;;;;;;;16.42;2.53;;;;;;;6.41;68.70;101427.38;5060823;28;20041;-69
2023/03/27 02:03:53;;;;;;;9.57;2.13;;;;;;;6.47;68.70;101429.00;5061719;28;20056;-69
2023/03/27 02:06:25;;;;;;;10.05;2.22;;;;;;;6.37;68.65;101434.47;5059695;28;20056;-68
2023/03/27 02:09:16;;;;;;;14.13;3.20;;;;;;;6.42;69.11;101435.31;5062163;28;20056;-69
2023/03/27 02:11:49;;;;;;;14.52;2.92;;;;;;;6.72;68.69;101440.88;5060028;28;20052;-69
2023/03/27 02:14:20;;;;;;;15.27;2.28;;;;;;;6.67;68.15;101440.03;5061437;28;20496;-70
2023/03/27 02:16:52;;;;;;;14.63;2.72;;;;;;;6.84;68.02;101443.34;5058270;28;20060;-68
2023/03/27 02:19:22;;;;;;;10.30;2.22;;;;;;;6.49;69.38;101446.00;5077916;28;20163;-69
2023/03/27 02:21:49;;;;;;;10.43;2.20;;;;;;;6.72;69.13;101445.50;5058954;28;20052;-70
2023/03/27 02:24:17;;;;;;;11.73;2.15;;;;;;;6.66;68.62;101449.31;5077767;28;20044;-70
2023/03/27 02:26:48;;;;;;;12.38;2.60;;;;;;;6.53;69.11;101455.31;5075950;28;20052;-69
2023/03/27 02:29:23;;;;;;;10.57;2.30;;;;;;;6.64;69.28;101454.25;5076706;28;20051;-70
2023/03/27 02:31:53;;;;;;;13.23;2.55;;;;;;;6.47;69.85;101456.38;5076314;28;20053;-69
2023/03/27 02:35:09;;;;;;;17.10;2.80;;;;;;;6.71;69.33;101463.84;5077798;28;20053;-69
2023/03/27 02:37:49;;;;;;;17.55;2.75;;;;;;;6.85;69.05;101459.50;5071824;28;20487;-68
2023/03/27 02:40:36;;;;;;;17.60;1.92;;;;;;;6.31;70.55;101469.16;5075487;28;20106;-68
2023/03/27 02:43:36;;;;;;;14.18;3.10;;;;;;;6.57;70.10;101470.13;5078678;28;20063;-69
2023/03/27 02:46:26;;;;;;;14.85;2.83;;;;;;;6.55;70.66;101472.28;5059932;28;20041;-68
2023/03/27 02:48:58;;;;;;;11.15;2.22;;;;;;;6.46;70.61;101474.72;5057877;28;20060;-67
2023/03/27 02:52:03;;;;;;;15.05;2.72;;;;;;;6.20;70.97;101464.75;5045528;28;20060;-67
2023/03/27 02:54:35;;;;;;;14.57;2.05;;;;;;;6.46;70.67;101480.19;4999094;28;20045;-68
2023/03/27 02:57:07;;;;;;;10.65;2.75;;;;;;;6.55;69.93;101472.28;5055281;28;20048;-67
2023/03/27 03:00:01;;;;;;;9.38;1.88;;;;;;;6.19;70.89;101478.72;5054577;28;20487;-70
2023/03/27 03:02:36;;;;;;;17.13;2.25;;;;;;;6.19;71.20;101484.19;5059402;28;20417;-67
2023/03/27 03:05:11;;;;;;;9.52;2.67;;;;;;;6.03;71.83;101488.75;5078563;28;20052;-68
2023/03/27 03:07:39;;;;;;;13.80;2.42;;;;;;;6.18;71.38;101494.28;5075351;28;20068;-68
2023/03/27 03:10:10;;;;;;;14.85;2.38;;;;;;;6.18;70.91;101488.81;5076700;28;20049;-69
2023/03/27 03:12:38;;;;;;;12.23;2.00;;;;;;;6.26;70.44;101499.25;5058642;28;20075;-69
2023/03/27 03:15:09;;;;;;;18.35;2.78;;;;;;;6.35;70.23;101507.75;5077030;28;20037;-69
2023/03/27 03:17:37;;;;;;;13.90;2.47;;;;;;;6.27;70.76;101506.38;5055658;28;20057;-68
2023/03/27 03:20:06;;;;;;;13.07;1.77;;;;;;;6.38;69.07;101515.47;5056507;28;20053;-68
2023/03/27 03:22:35;;;;;;;10.82;2.22;;;;;;;6.31;69.28;101510.22;5058776;28;20052;-68
2023/03/27 03:25:02;;;;;;;13.55;1.80;;;;;;;6.47;68.89;101522.88;5062014;28;20045;-69
2023/03/27 03:27:33;;;;;;;8.48;1.60;;;;;;;6.33;68.85;101521.72;5057907;28;20044;-67
2023/03/27 03:30:08;;;;;;;5.95;1.50;;;;;;;6.33;68.74;101518.97;5076406;28;20403;-68
2023/03/27 03:32:53;;;;;;;13.77;2.90;;;;;;;6.38;68.65;101521.75;5058575;28;20080;-68
2023/03/27 03:35:23;;;;;;;12.73;1.77;;;;;;;6.30;68.25;101524.16;5056854;28;20060;-68
2023/03/27 03:37:51;;;;;;;16.30;2.38;;;;;;;6.22;69.18;101525.50;5058947;28;20060;-69
2023/03/27 03:40:19;;;;;;;11.10;1.80;;;;;;;6.11;69.65;101532.00;5077260;28;20052;-70
2023/03/27 03:42:51;;;;;;;11.93;1.98;;;;;;;6.35;68.41;101525.00;5058772;28;20048;-68
2023/03/27 03:45:22;;;;;;;8.30;2.08;;;;;;;6.31;68.21;101523.88;5075581;28;20487;-68
2023/03/27 03:47:50;;;;;;;12.85;1.67;;;;;;;6.42;68.35;101539.28;5075705;28;20495;-68
2023/03/27 03:50:17;;;;;;;11.05;1.85;;;;;;;6.28;68.53;101551.78;5040597;28;20067;-68
2023/03/27 03:52:45;;;;;;;13.40;2.20;;;;;;;6.61;67.70;101545.09;5075147;28;20060;-68
2023/03/27 03:55:16;;;;;;;7.97;2.22;;;;;;;6.35;68.35;101557.00;5075480;28;20045;-69
2023/03/27 03:57:46;;;;;;;18.17;2.80;;;;;;;6.56;67.51;101554.13;5073435;28;20056;-69
2023/03/27 04:00:21;;;;;;;12.57;2.08;;;;;;;6.50;68.11;101563.41;5058705;28;20044;-69
2023/03/27 04:02:52;;;;;;;15.35;2.45;;;;;;;6.68;67.47;101571.16;5074617;28;20055;-69
2023/03/27 04:05:21;;;;;;;12.13;2.00;;;;;;;6.44;69.25;101578.16;5076205;28;20060;-68
2023/03/27 04:07:52;;;;;;;18.90;2.42;;;;;;;6.52;68.97;101587.78;5058984;28;20466;-70
2023/03/27 04:10:47;;;;;;;17.05;2.75;;;;;;;6.30;70.20;101585.19;5058865;28;20064;-69
2023/03/27 04:13:32;;;;;;;12.65;1.67;;;;;;;6.30;70.28;101584.34;5075269;28;20052;-69
2023/03/27 04:16:10;;;;;;;8.60;2.10;;;;;;;6.35;70.42;101585.22;5074189;28;20032;-69
2023/03/27 04:18:42;;;;;;;8.45;1.85;;;;;;;6.42;69.52;101596.75;5077099;28;20059;-69
2023/03/27 04:21:17;;;;;;;13.95;3.08;;;;;;;6.30;70.52;101596.13;5074004;28;20045;-69
2023/03/27 04:23:47;;;;;;;11.13;1.67;;;;;;;6.18;70.40;101603.69;5074284;28;20107;-69
2023/03/27 04:26:25;;;;;;;17.90;3.13;;;;;;;6.28;70.88;101608.41;5073937;28;20056;-68
2023/03/27 04:29:11;;;;;;;7.68;1.80;;;;;;;6.28;70.78;101613.88;5041867;28;20068;-68
2023/03/27 04:32:04;;;;;;;12.75;2.13;;;;;;;6.31;70.26;101622.38;5066843;28;20064;-68
2023/03/27 04:34:40;;;;;;;15.02;2.13;;;;;;;6.16;69.83;101618.72;5076163;28;20048;-68
2023/03/27 04:37:08;;;;;;;12.93;2.03;;;;;;;6.22;70.50;101623.97;5074268;28;20045;-67
2023/03/27 04:39:41;;;;;;;8.43;1.90;;;;;;;6.07;70.61;101617.53;5039471;28;20060;-69
2023/03/27 04:42:09;;;;;;;;;;;;;;;6.26;71.00;101629.75;5068413;28;20408;-68
2023/03/27 04:44:37;;;;;;;15.20;2.97;;;;;;;6.13;71.45;101633.75;5063427;28;19928;-68
2023/03/27 04:47:06;;;;;;;15.10;2.38;;;;;;;6.21;71.05;101637.91;5069761;28;20067;-68
2023/03/27 04:49:38;;;;;;;12.02;2.10;;;;;;;6.33;71.42;101641.28;5075055;28;20056;-68
2023/03/27 04:52:16;;;;;;;10.73;1.80;;;;;;;6.23;71.02;101652.97;5073184;28;20080;-68
2023/03/27 04:54:45;;;;;;;12.73;2.53;;;;;;;6.20;71.56;101660.88;5072573;28;20048;-67
2023/03/27 04:57:14;;;;;;;12.85;2.20;;;;;;;6.05;71.24;101667.03;5056062;28;20063;-68
2023/03/27 04:59:42;;;;;;;13.20;2.17;;;;;;;6.08;71.00;101657.50;5074839;28;20399;-68
2023/03/27 05:02:41;;;;;;;9.77;1.97;;;;;;;6.14;70.83;101661.91;5072877;28;20063;-68
2023/03/27 05:05:15;;;;;;;16.20;2.28;;;;;;;6.21;70.63;101668.81;5058856;28;20052;-69
2023/03/27 05:07:44;;;;;;;13.95;1.67;;;;;;;6.08;70.18;101677.47;5040081;28;20056;-68
2023/03/27 05:10:16;;;;;;;14.13;2.05;;;;;;;6.31;69.95;101671.63;5058743;28;20044;-69
2023/03/27 05:12:51;;;;;;;12.60;2.40;;;;;;;6.28;69.47;101682.28;5058165;28;20048;-68
2023/03/27 05:15:19;;;;;;;14.83;2.40;;;;;;;6.42;68.93;101670.63;5055817;28;20049;-69
2023/03/27 05:17:53;;;;;;;12.38;2.30;;;;;;;6.45;68.63;101681.03;5072433;28;20295;-69
2023/03/27 05:20:24;;;;;;;10.05;1.98;;;;;;;6.65;68.14;101680.38;5056105;28;20089;-69
2023/03/27 05:22:53;;;;;;;15.63;2.33;;;;;;;6.48;67.82;101682.44;5073425;28;20052;-69
2023/03/27 05:25:25;;;;;;;7.43;2.22;;;;;;;6.44;68.31;101701.28;5058165;28;20053;-70
2023/03/27 05:27:53;;;;;;;14.55;2.13;;;;;;;6.28;69.17;101695.94;5073631;28;20052;-69
2023/03/27 05:30:23;;;;;;;14.25;1.95;;;;;;;6.13;69.95;101699.41;5072727;28;20056;-68
2023/03/27 05:33:01;;;;;;;9.82;1.90;;;;;;;6.05;70.11;101710.78;5074237;28;20057;-68
2023/03/27 05:35:29;;;;;;;11.45;2.25;;;;;;;6.09;70.60;101703.72;5072440;28;20060;-70
2023/03/27 05:37:58;;;;;;;10.30;1.83;;;;;;;6.19;70.43;101706.53;5056887;28;20586;-67
2023/03/27 05:40:31;;;;;;;9.48;1.95;;;;;;;6.07;70.58;101705.91;5073215;28;20388;-69
2023/03/27 05:42:59;;;;;;;13.95;2.58;;;;;;;6.31;70.26;101712.66;5057591;28;20779;-69
2023/03/27 05:45:29;;;;;;;14.60;2.20;;;;;;;6.12;70.98;101703.19;5072154;28;20060;-69
2023/03/27 05:47:59;;;;;;;10.73;2.13;;;;;;;6.32;70.09;101711.59;5069497;28;20052;-69
2023/03/27 05:50:31;;;;;;;13.30;2.60;;;;;;;6.24;70.42;101720.25;5063677;28;20061;-70
2023/03/27 05:53:01;;;;;;;13.40;2.15;;;;;;;6.12;70.80;101719.63;5073786;28;20057;-69
2023/03/27 05:55:36;;;;;;;19.30;3.33;;;;;;;6.23;71.54;101721.38;5056869;28;20059;-69
2023/03/27 05:58:05;;;;;;;15.38;2.75;;;;;;;6.37;70.42;101728.06;5056581;28;20055;-68
2023/03/27 06:00:33;;;;;;;18.38;2.00;;;;;;;6.16;71.83;101730.88;5073379;28;20048;-69
2023/03/27 06:03:02;;;;;;;12.68;2.45;;;;;;;6.08;72.33;101731.34;5072787;28;20771;-69
2023/03/27 06:05:58;;;;;;;11.30;2.40;;;;;;;6.42;71.32;101736.31;5059128;28;20061;-69
2023/03/27 06:08:33;;;;;;;10.88;2.30;;;;;;;6.11;72.58;101741.75;5077982;28;20048;-68
2023/03/27 06:11:07;;;;;;;13.73;2.63;;;;;;;6.30;72.16;101748.50;5077696;28;20048;-69
2023/03/27 06:13:39;;;;;;;13.90;2.15;;;;;;;5.94;73.38;101741.03;5060423;28;20820;-68
2023/03/27 06:16:09;;;;;;;9.00;1.77;;;;;;;6.12;72.99;101757.09;5076615;28;20047;-69
2023/03/27 06:18:46;;;;;;;15.52;2.30;;;;;;;5.99;72.79;101750.13;5079234;28;20052;-68
2023/03/27 06:21:16;;;;;;;11.80;1.92;;;;;;;6.08;73.03;101753.22;5016079;28;20056;-69
2023/03/27 06:23:44;;;;;;;19.00;2.22;;;;;;;6.34;71.89;101757.84;5058215;28;20056;-68
2023/03/27 06:26:14;;;;;;;19.33;2.20;;;;;;;6.53;71.63;101757.19;5039751;28;20052;-69
2023/03/27 06:28:42;;;;;;;14.82;2.55;;;;;;;6.65;70.92;101773.44;5076120;28;20056;-69
2023/03/27 06:31:13;;;;;;;13.70;2.30;;;;;;;6.50;71.59;101762.38;5075120;28;20040;-69
2023/03/27 06:34:02;;;;;;;14.00;2.50;;;;;;;6.47;70.66;101771.91;5032005;28;20499;-70
2023/03/27 06:36:50;;;;;;;10.98;2.08;;;;;;;5.95;73.21;101770.88;5069358;28;20056;-69
2023/03/27 06:39:18;;;;;;;13.40;2.50;;;;;;;6.32;72.77;101773.69;5057746;28;20416;-68
2023/03/27 06:41:48;;;;;;;11.93;2.00;;;;;;;6.36;71.62;101783.03;5054987;28;20049;-69
2023/03/27 06:44:26;;;;;;;12.75;2.40;;;;;;;6.26;71.92;101785.69;5073046;28;20044;-69
2023/03/27 06:46:59;;;;;;;11.75;2.20;;;;;;;6.20;72.78;101793.03;5052987;28;20492;-68
2023/03/27 06:49:34;;;;;;;11.60;2.30;;;;;;;6.25;73.05;101793.06;5067106;28;20526;-69
2023/03/27 06:52:10;;;;;;;12.35;2.25;;;;;;;6.55;71.88;101795.25;5046537;28;20049;-71
2023/03/27 06:54:41;;;;;;;13.82;2.42;;;;;;;6.32;72.22;101799.16;5062248;28;20044;-69
2023/03/27 06:57:08;;;;;;;12.65;2.22;;;;;;;6.63;71.38;101802.97;5058482;28;20059;-68
2023/03/27 06:59:47;;;;;;;24.90;3.15;;;;;;;7.01;72.34;101802.72;5060836;28;20054;-67
2023/03/27 07:02:20;;;;;;;10.93;2.03;;;;;;;6.36;71.88;101805.75;5052308;28;20079;-67
2023/03/27 07:05:07;;;;;;;15.60;2.83;;;;;;;6.62;70.97;101809.56;5073379;28;20040;-70
2023/03/27 07:07:39;;;;;;;11.00;2.25;;;;;;;6.36;71.46;101818.63;5069021;28;20049;-70
2023/03/27 07:10:10;;;;;;;15.45;2.15;;;;;;;6.57;71.86;101815.00;5062738;28;20055;-70
2023/03/27 07:12:40;;;;;;;13.30;2.43;;;;;;;6.48;71.43;101819.28;5030828;28;20053;-71
2023/03/27 07:15:09;;;;;;;12.48;2.50;;;;;;;6.52;71.63;101820.41;5059310;28;20496;-70
2023/03/27 07:17:37;;;;;;;9.63;2.15;;;;;;;6.66;71.27;101821.63;5052895;28;20046;-72
2023/03/27 07:20:16;;;;;;;12.98;1.95;;;;;;;6.67;71.34;101818.63;5074439;28;20063;-71
2023/03/27 07:22:44;;;;;;;11.52;3.15;;;;;;;6.73;71.45;101816.75;5047560;28;20061;-70
2023/03/27 07:25:27;;;;;;;11.40;2.58;;;;;;;6.84;70.79;101829.44;5046780;28;20062;-69
2023/03/27 07:27:58;;;;;;;13.45;2.58;;;;;;;6.83;70.50;101823.13;5075248;28;20044;-70
2023/03/27 07:30:27;;;;;;;19.45;3.30;;;;;;;7.06;70.43;101832.09;5069749;28;20053;-69
2023/03/27 07:32:56;;;;;;;8.95;2.35;;;;;;;7.33;69.35;101821.84;5077472;28;20056;-69
2023/03/27 07:35:24;;;;;;;8.80;2.00;;;;;;;7.58;67.19;101833.75;5034455;28;20583;-68
2023/03/27 07:38:10;;;;;;;9.75;1.95;;;;;;;7.41;68.56;101835.88;5061322;28;20053;-68
2023/03/27 07:41:04;;;;;;;11.73;2.05;;;;;;;7.21;65.26;101834.91;5061963;28;20404;-69
2023/03/27 07:44:07;;;;;;;9.93;2.13;;;;;;;6.98;65.78;101825.19;5068931;28;20051;-68
2023/03/27 07:46:45;;;;;;;18.27;1.95;;;;;;;7.11;62.45;101823.91;5061995;28;20052;-68
2023/03/27 07:49:13;;;;;;;9.23;2.30;;;;;;;7.56;62.09;101822.28;5046192;28;20048;-69
2023/03/27 07:51:40;;;;;;;8.95;2.08;;;;;;;7.91;61.68;101836.09;5065829;28;20053;-69
2023/03/27 07:54:12;;;;;;;6.90;1.73;;;;;;;7.27;58.99;101842.91;5049663;28;20059;-68
2023/03/27 07:56:45;;;;;;;8.77;1.83;;;;;;;7.35;59.91;101838.84;5055662;28;20514;-68
2023/03/27 07:59:21;;;;;;;8.73;1.85;;;;;;;7.28;56.50;101836.34;5065310;28;20044;-68
2023/03/27 08:01:49;;;;;;;7.13;2.08;;;;;;;7.38;55.85;101833.66;5049944;28;20048;-68
2023/03/27 08:04:19;;;;;;;8.97;2.17;;;;;;;7.57;56.58;101840.34;5065778;28;20574;-68
2023/03/27 08:07:01;;;;;;;11.82;2.17;;;;;;;7.93;56.18;101835.88;5067793;28;20778;-68
2023/03/27 08:09:29;;;;;;;9.82;2.28;;;;;;;8.23;55.18;101840.63;5080079;28;20053;-67
2023/03/27 08:11:56;;;;;;;10.65;1.73;;;;;;;8.11;54.25;101846.34;5070985;28;20503;-69
2023/03/27 08:14:27;;;;;;;9.57;1.90;;;;;;;8.32;54.02;101850.81;5066231;28;20060;-69
2023/03/27 08:16:57;;;;;;;10.20;2.08;;;;;;;7.89;51.15;101856.69;5065638;28;20044;-69
2023/03/27 08:19:44;;;;;;;9.10;1.80;;;;;;;7.80;51.73;101850.91;5066986;28;20056;-67
2023/03/27 08:22:12;;;;;;;11.85;1.75;;;;;;;8.20;52.12;101863.09;5061163;28;20052;-68
2023/03/27 08:24:59;;;;;;;12.55;1.90;;;;;;;8.26;51.92;101857.41;5060224;28;20885;-69
2023/03/27 08:27:27;;;;;;;11.13;2.15;;;;;;;7.85;51.82;101864.63;5045991;28;20063;-68
2023/03/27 08:29:56;;;;;;;11.63;2.25;;;;;;;8.14;51.30;101881.50;5071752;28;20495;-66
2023/03/27 08:32:23;;;;;;;6.35;1.55;;;;;;;8.04;48.88;101889.66;5060106;28;20063;-69
2023/03/27 08:34:54;;;;;;;;;;;;;;;7.55;49.74;101880.09;5063845;28;20071;-67
2023/03/27 08:37:22;;;;;;;8.45;1.27;;;;;;;7.51;49.12;101892.69;5069074;28;19929;-69
2023/03/27 08:40:24;;;;;;;8.00;1.38;;;;;;;7.74;48.33;101895.03;5065282;28;20060;-70
2023/03/27 08:43:10;;;;;;;11.50;1.60;;;;;;;7.56;48.90;101888.06;5056804;28;20059;-68
2023/03/27 08:45:48;;;;;;;8.57;1.85;;;;;;;7.43;51.54;101898.66;5064177;28;20527;-68
2023/03/27 08:48:26;;;;;;;6.75;1.70;;;;;;;7.43;51.95;101898.66;5031299;28;20044;-68
2023/03/27 08:50:55;;;;;;;10.20;1.83;;;;;;;7.66;52.45;101906.47;5053783;28;20048;-67
2023/03/27 08:53:43;;;;;;;6.80;1.58;;;;;;;7.48;54.09;101907.72;5060753;28;20052;-69
2023/03/27 08:56:13;;;;;;;11.05;1.63;;;;;;;7.64;53.85;101914.13;5061168;28;20437;-69
2023/03/27 08:58:43;;;;;;;8.40;2.08;;;;;;;7.54;53.72;101917.66;5043824;28;20051;-68
2023/03/27 09:01:21;;;;;;;11.63;1.85;;;;;;;7.49;54.44;101917.63;5047401;28;20066;-70
2023/03/27 09:04:00;;;;;;;7.53;1.33;;;;;;;7.61;54.55;101928.38;5071121;28;20063;-71
2023/03/27 09:06:47;;;;;;;7.75;1.50;;;;;;;7.51;54.37;101933.81;5059607;28;20051;-71
2023/03/27 09:09:41;;;;;;;7.93;1.85;;;;;;;7.40;54.70;101943.03;5065298;28;20060;-70
2023/03/27 09:12:36;;;;;;;9.82;1.92;;;;;;;7.27;54.02;101946.22;5039166;28;20473;-68
2023/03/27 09:15:16;;;;;;;7.43;1.65;;;;;;;7.44;53.80;101955.97;5031403;28;20075;-69
2023/03/27 09:18:00;;;;;;;7.10;1.67;;;;;;;7.64;53.41;101945.13;5035072;28;20045;-69
2023/03/27 09:20:42;;;;;;;8.63;1.63;;;;;;;7.53;54.20;101953.56;5052545;28;20059;-69
2023/03/27 09:23:17;;;;;;;7.22;1.75;;;;;;;7.68;53.93;101965.47;5018894;28;20317;-70
2023/03/27 09:26:35;;;;;;;5.60;2.03;;;;;;;7.35;55.52;101954.78;5044270;28;20052;-69
2023/03/27 09:29:15;;;;;;;;;;;;;;;7.35;56.68;101954.78;5066368;28;20142;-69
2023/03/27 09:31:52;;;;;;;9.25;1.90;;;;;;;7.59;55.58;101958.81;5063091;28;19928;-68
2023/03/27 09:34:28;;;;;;;13.30;2.10;;;;;;;7.70;55.73;101968.78;5066327;28;20053;-69
2023/03/27 09:36:58;;;;;;;7.88;1.73;;;;;;;7.60;55.14;101965.94;5065343;28;20056;-69
2023/03/27 09:39:31;;;;;;;8.10;1.80;;;;;;;7.68;55.20;101965.47;5068666;28;20053;-69
2023/03/27 09:42:29;;;;;;;8.18;2.10;;;;;;;7.98;54.44;101978.53;5053834;28;20059;-69
2023/03/27 09:45:01;;;;;;;8.95;2.58;;;;;;;8.12;50.69;101976.97;5068704;28;20499;-69
2023/03/27 09:47:37;;;;;;;9.65;1.80;;;;;;;8.24;49.95;101965.81;5030776;28;20049;-67
2023/03/27 09:50:27;;;;;;;5.80;1.35;;;;;;;7.66;46.66;101983.25;5049528;28;20052;-71
2023/03/27 09:53:11;;;;;;;10.85;1.65;;;;;;;8.05;46.42;101995.59;5052750;28;20064;-71
2023/03/27 09:56:06;;;;;;;5.72;1.30;;;;;;;7.81;45.18;101991.59;5064499;28;20055;-70
2023/03/27 09:58:43;;;;;;;6.25;1.48;;;;;;;7.69;44.90;101996.44;5051653;28;20064;-71
2023/03/27 10:01:36;;;;;;;5.05;1.20;;;;;;;7.71;46.08;101989.59;5038446;28;20044;-71
2023/03/27 10:05:10;;;;;;;9.48;1.60;;;;;;;7.96;45.79;101991.69;5041675;28;20063;-70
2023/03/27 10:07:41;;;;;;;6.32;1.20;;;;;;;7.99;44.23;101994.75;5068845;28;20055;-70
2023/03/27 10:10:41;;;;;;;5.57;1.45;;;;;;;8.37;44.45;101979.06;5041384;28;20499;-70
2023/03/27 10:13:26;;;;;;;6.07;1.80;;;;;;;8.30;45.32;101995.75;5074000;28;20059;-69
2023/03/27 10:16:06;;;;;;;6.55;1.70;;;;;;;8.16;46.14;101991.81;5042081;28;20060;-70
2023/03/27 10:18:45;;;;;;;11.07;1.92;;;;;;;8.25;44.84;101998.47;5056211;28;20037;-69
2023/03/27 10:21:23;;;;;;;4.75;1.25;;;;;;;8.29;44.74;101980.38;5062948;28;20049;-70
2023/03/27 10:23:51;;;;;;;5.43;1.30;;;;;;;8.40;44.33;101981.25;5069229;28;20055;-69
2023/03/27 10:26:55;;;;;;;7.95;1.33;;;;;;;8.44;43.04;101998.84;5008344;28;20057;-70
2023/03/27 10:29:25;;;;;;;5.00;1.42;;;;;;;8.64;43.28;101986.03;5044497;28;20060;-70
2023/03/27 10:31:55;;;;;;;5.22;1.00;;;;;;;8.46;42.54;101982.91;5073107;28;20063;-74
2023/03/27 10:34:56;;;;;;;5.70;1.70;;;;;;;8.37;43.52;101979.84;5058863;28;20060;-72
2023/03/27 10:37:52;;;;;;;6.22;1.20;;;;;;;8.46;43.37;101983.75;5074596;28;20045;-72
2023/03/27 10:40:29;;;;;;;5.85;1.27;;;;;;;8.55;43.73;101982.13;5068611;28;20155;-74
2023/03/27 10:43:05;;;;;;;7.60;1.48;;;;;;;8.68;43.57;101984.38;5064158;28;20059;-71
2023/03/27 10:45:45;;;;;;;7.75;1.45;;;;;;;8.54;43.22;101982.41;5056371;28;20056;-72
2023/03/27 10:48:28;;;;;;;6.65;1.50;;;;;;;8.45;44.29;101986.75;5057579;28;20047;-73
2023/03/27 10:51:01;;;;;;;6.85;1.45;;;;;;;8.47;44.08;102001.84;5066043;28;20063;-74
2023/03/27 10:53:56;;;;;;;10.95;2.10;;;;;;;8.56;44.32;102000.25;5058851;28;20063;-72
2023/03/27 10:56:48;;;;;;;11.25;4.38;;;;;;;8.61;45.26;101994.78;5071423;28;20040;-71
2023/03/27 10:59:41;;;;;;;6.35;1.60;;;;;;;8.15;45.42;102003.88;5056020;28;20620;-72
2023/03/27 11:02:23;;;;;;;5.45;1.60;;;;;;;8.52;45.08;102001.06;5053506;28;20057;-70
2023/03/27 11:04:56;;;;;;;6.60;1.48;;;;;;;8.63;45.09;102000.03;5061639;28;20033;-70
2023/03/27 11:07:40;;;;;;;7.53;2.08;;;;;;;8.86;41.62;102007.78;5066488;28;20052;-68
2023/03/27 11:10:17;;;;;;;5.85;1.70;;;;;;;8.81;42.30;102011.34;5057119;28;20057;-71
2023/03/27 11:12:53;;;;;;;3.92;1.33;;;;;;;8.49;40.35;102012.59;5071602;28;20044;-70
2023/03/27 11:15:26;;;;;;;5.45;1.55;;;;;;;8.39;40.22;102016.09;5061344;28;20053;-70
2023/03/27 11:18:05;;;;;;;4.32;1.80;;;;;;;8.59;40.45;102004.41;5072499;28;20041;-71
2023/03/27 11:20:55;;;;;;;7.32;2.05;;;;;;;8.98;40.71;102003.69;5031225;28;20088;-72
2023/03/27 11:23:40;;;;;;;7.15;1.48;;;;;;;9.17;40.78;102003.19;5081537;28;20096;-71
2023/03/27 11:26:26;;;;;;;4.88;1.60;;;;;;;9.31;40.98;102004.28;5066237;28;20521;-71
2023/03/27 11:28:56;;;;;;;7.82;1.40;;;;;;;9.35;41.00;102008.13;5067684;28;20048;-71
2023/03/27 11:31:39;;;;;;;6.40;1.30;;;;;;;9.40;41.01;102013.63;5064201;28;20048;-71
2023/03/27 11:34:19;;;;;;;5.45;1.27;;;;;;;9.35;41.38;102013.63;5061230;28;20049;-72
2023/03/27 11:37:19;;;;;;;6.15;1.70;;;;;;;9.07;41.65;102007.56;5069826;28;20063;-72
2023/03/27 11:40:06;;;;;;;10.57;1.95;;;;;;;9.06;42.61;102011.41;5056745;28;20047;-71
2023/03/27 11:42:39;;;;;;;5.97;1.38;;;;;;;9.40;41.60;102011.72;5044505;28;20063;-69
2023/03/27 11:45:20;;;;;;;6.47;1.63;;;;;;;9.55;41.75;102009.00;5049786;28;20040;-71
2023/03/27 11:48:18;;;;;;;7.40;1.52;;;;;;;9.35;42.29;102008.97;5072695;28;20495;-71
2023/03/27 11:50:58;;;;;;;5.57;1.73;;;;;;;9.32;42.29;102014.19;5070716;28;20044;-71
2023/03/27 11:53:35;;;;;;;9.75;1.15;;;;;;;9.57;41.95;102012.25;5070467;28;20496;-71
2023/03/27 11:56:12;;;;;;;6.35;1.45;;;;;;;9.66;41.10;102020.81;5059558;28;20056;-72
2023/03/27 11:59:06;;;;;;;5.95;1.42;;;;;;;9.30;41.56;102028.22;5067736;28;20052;-71
2023/03/27 12:01:46;;;;;;;7.55;1.40;;;;;;;9.55;41.68;102032.91;5067777;28;20055;-70
2023/03/27 12:04:32;;;;;;;8.20;1.80;;;;;;;9.39;42.09;102032.06;5048903;28;20048;-70
2023/03/27 12:07:42;;;;;;;4.45;1.33;;;;;;;9.26;42.58;102032.59;5048020;28;20037;-72
2023/03/27 12:10:33;;;;;;;4.80;1.25;;;;;;;9.50;42.72;102038.41;5060376;28;20037;-71
2023/03/27 12:13:36;;;;;;;7.03;1.33;;;;;;;9.09;43.01;102038.34;5062412;28;20051;-72
2023/03/27 12:16:46;;;;;;;4.82;1.20;;;;;;;9.18;42.66;102046.06;5040321;28;20424;-72